Time;durP1;ratioP1;P1;durP2;ratioP2;P2;SDS_P1;SDS_P2;PMS_P1;PMS_P2;Temp;Humidity;BMP_temperature;BMP_pressure;BME280_temperature;BME280_humidity;BME280_pressure;Samples;Min_cycle;Max_cycle;Signal;HPM_P1;HPM_P2
2022/07/05 00:02:21;;;;;;;10.27;8.38;;;24.60;99.90;;;;;;5129259;27;20023;-55
2022/07/05 00:04:47;;;;;;;12.18;8.25;;;24.60;99.90;;;;;;5119123;27;20023;-54
2022/07/05 00:07:19;;;;;;;10.32;8.75;;;24.60;99.90;;;;;;5094697;27;20042;-57
2022/07/05 00:09:49;;;;;;;9.43;8.15;;;24.50;99.90;;;;;;5130108;27;20051;-56
2022/07/05 00:12:15;;;;;;;10.90;8.55;;;24.60;99.90;;;;;;5128951;27;20490;-54
2022/07/05 00:14:44;;;;;;;10.35;8.48;;;24.70;99.90;;;;;;5130239;27;20030;-55
2022/07/05 00:17:11;;;;;;;11.15;8.63;;;24.90;99.90;;;;;;5077751;27;20062;-53
2022/07/05 00:19:37;;;;;;;16.38;9.85;;;25.00;99.90;;;;;;5121196;27;20103;-52
2022/07/05 00:22:03;;;;;;;11.95;8.98;;;25.00;99.90;;;;;;5120645;27;20048;-56
2022/07/05 00:24:29;;;;;;;10.15;8.95;;;25.10;99.90;;;;;;5127987;27;20041;-56
2022/07/05 00:26:55;;;;;;;10.70;8.07;;;25.10;99.90;;;;;;5129089;27;20374;-55
2022/07/05 00:29:21;;;;;;;10.10;8.57;;;25.20;99.90;;;;;;5125644;27;20043;-56
2022/07/05 00:31:47;;;;;;;13.63;9.32;;;25.20;99.90;;;;;;5108454;27;20031;-54
2022/07/05 00:34:12;;;;;;;11.23;8.40;;;25.20;99.90;;;;;;5109825;27;20042;-55
2022/07/05 00:36:39;;;;;;;9.20;8.07;;;25.30;99.90;;;;;;5126128;27;20024;-55
2022/07/05 00:39:05;;;;;;;13.48;9.05;;;25.20;99.90;;;;;;5120409;27;20519;-55
2022/07/05 00:41:31;;;;;;;12.48;8.93;;;25.10;99.90;;;;;;5120289;27;20031;-54
2022/07/05 00:44:03;;;;;;;9.07;7.50;;;25.20;99.90;;;;;;5125703;27;20051;-56
2022/07/05 00:46:29;;;;;;;14.02;8.98;;;25.20;99.90;;;;;;5104062;27;20054;-56
2022/07/05 00:48:57;;;;;;;12.00;9.00;;;25.20;99.90;;;;;;5085246;28;20492;-53
2022/07/05 00:51:24;;;;;;;14.63;9.15;;;25.20;99.90;;;;;;5087214;28;20044;-56
2022/07/05 00:53:50;;;;;;;9.98;8.15;;;25.20;99.90;;;;;;5090414;28;20040;-57
2022/07/05 00:56:17;;;;;;;13.77;8.75;;;25.20;99.90;;;;;;5088930;28;20043;-55
2022/07/05 00:58:43;;;;;;;11.05;8.48;;;25.10;99.90;;;;;;5086722;28;20407;-54
2022/07/05 01:01:10;;;;;;;11.07;9.32;;;25.20;99.90;;;;;;5087745;28;20040;-53
2022/07/05 01:03:40;;;;;;;8.73;7.70;;;25.20;99.90;;;;;;5089160;28;20043;-56
2022/07/05 01:06:07;;;;;;;12.75;8.90;;;25.20;99.90;;;;;;5084607;28;20031;-56
2022/07/05 01:08:37;;;;;;;12.98;8.95;;;25.20;99.90;;;;;;5087868;28;20146;-54
2022/07/05 01:11:03;;;;;;;10.45;8.77;;;25.10;99.90;;;;;;5087462;28;20035;-55
2022/07/05 01:13:30;;;;;;;11.77;8.32;;;25.00;99.90;;;;;;5086042;28;20031;-53
2022/07/05 01:15:56;;;;;;;10.85;8.43;;;25.00;99.90;;;;;;5086101;28;20032;-54
2022/07/05 01:18:22;;;;;;;11.52;8.57;;;25.10;99.90;;;;;;5087517;28;20040;-56
2022/07/05 01:20:51;;;;;;;9.45;8.57;;;25.30;99.90;;;;;;5115977;27;20039;-54
2022/07/05 01:23:18;;;;;;;10.93;8.93;;;25.30;99.90;;;;;;5118895;27;20359;-53
2022/07/05 01:25:47;;;;;;;13.98;8.90;;;25.20;99.90;;;;;;5126032;27;20393;-55
2022/07/05 01:28:14;;;;;;;11.15;9.55;;;25.20;99.90;;;;;;5124999;27;20478;-56
2022/07/05 01:30:41;;;;;;;13.18;11.10;;;24.60;99.90;;;;;;5129369;27;20428;-55
2022/07/05 01:33:07;;;;;;;14.77;10.68;;;24.60;99.90;;;;;;5127868;27;20027;-56
2022/07/05 01:35:34;;;;;;;20.65;11.65;;;24.50;99.90;;;;;;5122437;27;20019;-53
2022/07/05 01:38:00;;;;;;;14.38;11.88;;;24.40;99.90;;;;;;5124760;27;20027;-53
2022/07/05 01:40:26;;;;;;;17.35;13.52;;;24.10;99.90;;;;;;5116991;28;20023;-54
2022/07/05 01:42:53;;;;;;;18.17;14.70;;;24.00;99.90;;;;;;5121686;28;20036;-55
2022/07/05 01:48:09;;;;;;;71.72;37.40;;;24.10;99.90;;;;;;5123467;28;20034;-55
2022/07/05 01:50:46;;;;;;;125.43;62.08;;;24.10;99.90;;;;;;5122772;28;20028;-56
2022/07/05 01:53:22;;;;;;;84.07;44.25;;;24.10;99.90;;;;;;5122109;28;20031;-53
2022/07/05 01:55:48;;;;;;;88.22;45.17;;;23.90;99.90;;;;;;5128305;28;20020;-56
2022/07/05 01:58:14;;;;;;;73.00;37.65;;;23.90;99.90;;;;;;5126268;28;20049;-55
2022/07/05 02:00:47;;;;;;;82.05;41.63;;;24.10;99.90;;;;;;5125629;28;20106;-58
2022/07/05 02:03:14;;;;;;;77.57;40.45;;;24.10;99.90;;;;;;5096803;28;20066;-57
2022/07/05 02:05:41;;;;;;;64.22;34.85;;;24.20;99.90;;;;;;5124906;28;20049;-56
2022/07/05 02:08:07;;;;;;;55.42;31.83;;;24.20;99.90;;;;;;5121103;28;20051;-55
2022/07/05 02:10:37;;;;;;;35.30;21.83;;;24.20;99.90;;;;;;5120279;28;20063;-56
2022/07/05 02:13:04;;;;;;;28.30;20.50;;;24.20;99.90;;;;;;5122382;28;20027;-55
2022/07/05 02:15:37;;;;;;;26.95;18.17;;;24.10;99.90;;;;;;5119587;28;20039;-58
2022/07/05 02:18:05;;;;;;;27.42;16.98;;;24.10;99.90;;;;;;5106484;28;20118;-56
2022/07/05 02:20:32;;;;;;;22.38;17.52;;;24.20;99.90;;;;;;5123561;28;20027;-57
2022/07/05 02:22:58;;;;;;;24.38;17.17;;;24.20;99.90;;;;;;5121535;28;20497;-57
2022/07/05 02:25:24;;;;;;;26.77;17.23;;;24.20;99.90;;;;;;5122818;28;20027;-56
2022/07/05 02:27:52;;;;;;;23.05;17.08;;;24.20;99.90;;;;;;5128228;28;20038;-57
2022/07/05 02:30:19;;;;;;;27.00;19.58;;;24.30;99.90;;;;;;5123014;28;20498;-57
2022/07/05 02:32:45;;;;;;;28.63;20.25;;;24.40;99.90;;;;;;5090590;28;20394;-56
2022/07/05 02:35:11;;;;;;;25.70;18.90;;;24.50;99.90;;;;;;5121317;28;20168;-56
2022/07/05 02:37:39;;;;;;;21.40;16.60;;;24.50;99.90;;;;;;5096498;28;20376;-58
2022/07/05 02:40:08;;;;;;;23.00;19.00;;;24.60;99.90;;;;;;5121158;28;20036;-54
2022/07/05 02:42:34;;;;;;;27.40;19.25;;;24.50;99.90;;;;;;5052464;28;20112;-58
2022/07/05 02:45:00;;;;;;;22.88;18.17;;;24.50;99.90;;;;;;5105724;28;20200;-54
2022/07/05 02:47:28;;;;;;;22.50;17.58;;;24.50;99.90;;;;;;5120340;27;20059;-57
2022/07/05 02:49:54;;;;;;;26.60;17.95;;;24.60;99.90;;;;;;5108807;27;20487;-54
2022/07/05 02:52:20;;;;;;;19.55;14.70;;;24.60;99.90;;;;;;5129905;27;20039;-57
2022/07/05 02:54:46;;;;;;;24.08;15.60;;;24.60;99.90;;;;;;5125179;27;20488;-56
2022/07/05 02:57:12;;;;;;;19.52;14.75;;;24.60;99.90;;;;;;5133510;27;20044;-55
2022/07/05 02:59:37;;;;;;;19.00;14.98;;;24.40;99.90;;;;;;5128416;27;20102;-55
2022/07/05 03:02:03;;;;;;;18.90;14.85;;;24.40;99.90;;;;;;5125762;27;20035;-54
2022/07/05 03:04:29;;;;;;;20.45;16.80;;;24.20;99.90;;;;;;5095318;28;20036;-58
2022/07/05 03:06:54;;;;;;;20.10;16.45;;;23.90;99.90;;;;;;5126929;27;20038;-57
2022/07/05 03:09:20;;;;;;;17.88;15.27;;;24.00;99.90;;;;;;5125890;27;20063;-56
2022/07/05 03:11:46;;;;;;;18.83;16.23;;;24.00;99.90;;;;;;5124141;27;20032;-56
2022/07/05 03:14:12;;;;;;;26.52;16.52;;;24.20;99.90;;;;;;5122187;27;20447;-55
2022/07/05 03:16:38;;;;;;;20.92;16.20;;;24.10;99.90;;;;;;5128695;27;20031;-55
2022/07/05 03:19:04;;;;;;;18.80;15.38;;;24.00;99.90;;;;;;5121486;27;20129;-56
2022/07/05 03:21:30;;;;;;;18.98;14.65;;;23.90;99.90;;;;;;5123470;27;20123;-57
2022/07/05 03:23:55;;;;;;;17.63;13.23;;;23.70;99.90;;;;;;5125182;27;20032;-55
2022/07/05 03:26:21;;;;;;;18.27;13.73;;;23.50;99.90;;;;;;5132809;27;20023;-54
2022/07/05 03:28:47;;;;;;;16.27;13.13;;;23.60;99.90;;;;;;5124264;27;20042;-56
2022/07/05 03:31:12;;;;;;;14.65;12.65;;;23.70;99.90;;;;;;5127969;27;20370;-56
2022/07/05 03:33:38;;;;;;;17.25;13.18;;;23.90;99.90;;;;;;5125826;27;20028;-55
2022/07/05 03:36:04;;;;;;;16.70;13.70;;;24.00;99.90;;;;;;5123168;27;20024;-56
2022/07/05 03:38:30;;;;;;;15.75;13.13;;;24.00;99.90;;;;;;5127178;27;20534;-54
2022/07/05 03:40:55;;;;;;;23.67;13.63;;;24.20;99.90;;;;;;5134474;27;20428;-57
2022/07/05 03:43:21;;;;;;;21.58;14.30;;;24.30;99.90;;;;;;5129963;27;20066;-54
2022/07/05 03:45:47;;;;;;;20.02;12.63;;;24.40;99.90;;;;;;5089161;28;20032;-54
2022/07/05 03:48:13;;;;;;;16.13;13.40;;;24.50;99.90;;;;;;5096794;27;20454;-55
2022/07/05 03:50:40;;;;;;;17.05;13.93;;;24.50;99.90;;;;;;5091535;27;20465;-58
2022/07/05 03:53:06;;;;;;;15.93;12.30;;;24.60;99.90;;;;;;5087488;28;20089;-57
2022/07/05 03:55:32;;;;;;;19.02;11.90;;;24.70;99.90;;;;;;5092790;28;20040;-57
2022/07/05 03:57:58;;;;;;;15.82;11.73;;;24.70;99.90;;;;;;5091990;28;20101;-57
2022/07/05 04:00:24;;;;;;;14.40;12.73;;;24.00;99.90;;;;;;5091891;28;20522;-54
2022/07/05 04:02:49;;;;;;;22.40;12.88;;;24.00;99.90;;;;;;5092024;28;20044;-55
2022/07/05 04:05:15;;;;;;;17.55;13.35;;;23.60;99.90;;;;;;5092418;28;20472;-55
2022/07/05 04:07:52;;;;;;;35.38;22.25;;;23.60;99.90;;;;;;5091104;28;20139;-57
2022/07/05 04:10:18;;;;;;;38.85;25.55;;;23.30;99.90;;;;;;5091774;28;20044;-54
2022/07/05 04:12:44;;;;;;;50.63;34.20;;;23.40;99.90;;;;;;5092087;28;20831;-59
2022/07/05 04:15:11;;;;;;;59.05;35.65;;;23.20;99.90;;;;;;5092458;28;20085;-55
2022/07/05 04:17:49;;;;;;;54.85;32.85;;;22.90;99.90;;;;;;5090820;28;20070;-56
2022/07/05 04:20:15;;;;;;;50.55;29.00;;;22.80;99.90;;;;;;5064575;28;20071;-58
2022/07/05 04:22:41;;;;;;;42.08;25.88;;;22.80;99.90;;;;;;5091380;28;20067;-56
2022/07/05 04:25:16;;;;;;;37.05;24.25;;;23.40;99.90;;;;;;5093044;27;20067;-55
2022/07/05 04:27:46;;;;;;;35.65;20.73;;;23.60;99.90;;;;;;5127095;27;20442;-58
2022/07/05 04:30:12;;;;;;;29.90;22.38;;;23.40;99.90;;;;;;5127908;27;20031;-55
2022/07/05 04:32:40;;;;;;;30.58;20.27;;;23.50;99.90;;;;;;5132222;27;20030;-57
2022/07/05 04:35:06;;;;;;;37.45;23.33;;;24.00;99.90;;;;;;5068467;28;20044;-57
2022/07/05 04:37:32;;;;;;;29.13;21.35;;;23.90;99.90;;;;;;5052376;28;20040;-56
2022/07/05 04:39:57;;;;;;;28.25;22.35;;;24.20;99.90;;;;;;5064745;28;20078;-57
2022/07/05 04:42:23;;;;;;;35.53;25.70;;;24.50;99.90;;;;;;5069739;28;20028;-57
2022/07/05 04:44:49;;;;;;;39.60;27.48;;;24.40;99.90;;;;;;5066617;28;20095;-53
2022/07/05 04:47:15;;;;;;;34.58;25.88;;;24.50;99.90;;;;;;5063375;28;20025;-53
2022/07/05 04:49:40;;;;;;;49.63;30.63;;;24.80;99.90;;;;;;5059567;28;20134;-59
2022/07/05 04:52:06;;;;;;;40.65;27.17;;;24.80;99.90;;;;;;5062107;28;20033;-58
2022/07/05 04:54:32;;;;;;;33.25;24.52;;;24.80;99.90;;;;;;5067536;28;20083;-58
2022/07/05 04:56:58;;;;;;;32.53;23.70;;;24.90;99.90;;;;;;5062485;28;20590;-58
2022/07/05 04:59:23;;;;;;;31.92;22.95;;;25.10;99.90;;;;;;5068100;28;20212;-59
2022/07/05 05:01:49;;;;;;;29.40;21.77;;;25.10;99.90;;;;;;5059129;28;20049;-59
2022/07/05 05:04:15;;;;;;;33.22;19.83;;;25.50;99.90;;;;;;5067143;28;20032;-58
2022/07/05 05:06:41;;;;;;;26.48;16.25;;;25.50;99.90;;;;;;5113447;27;20074;-59
2022/07/05 05:09:06;;;;;;;18.20;13.52;;;25.40;99.90;;;;;;5120982;27;20046;-59
2022/07/05 05:11:32;;;;;;;23.85;16.13;;;25.20;99.90;;;;;;5125806;27;20030;-59
2022/07/05 05:13:58;;;;;;;17.13;13.43;;;25.00;99.90;;;;;;5115884;27;20026;-58
2022/07/05 05:16:24;;;;;;;16.67;13.15;;;25.00;99.90;;;;;;5124108;27;20020;-60
2022/07/05 05:18:50;;;;;;;18.40;13.13;;;24.90;99.90;;;;;;5124905;27;20027;-58
2022/07/05 05:21:16;;;;;;;17.48;11.95;;;24.90;99.90;;;;;;5122653;27;20089;-59
2022/07/05 05:23:41;;;;;;;20.02;13.25;;;24.90;99.90;;;;;;5127781;27;20054;-60
2022/07/05 05:26:07;;;;;;;14.45;12.65;;;25.00;99.90;;;;;;5124201;27;20063;-59
2022/07/05 05:28:33;;;;;;;15.90;12.25;;;25.10;99.90;;;;;;5115626;27;20034;-57
2022/07/05 05:30:59;;;;;;;15.43;11.50;;;25.40;99.90;;;;;;5119598;27;20111;-60
2022/07/05 05:33:25;;;;;;;17.27;12.05;;;25.50;99.90;;;;;;5126415;27;20106;-58
2022/07/05 05:35:51;;;;;;;13.23;11.82;;;25.70;99.90;;;;;;5127724;27;20491;-58
2022/07/05 05:38:16;;;;;;;14.20;12.57;;;25.70;99.90;;;;;;5130126;27;20062;-59
2022/07/05 05:40:44;;;;;;;15.82;12.65;;;25.80;99.90;;;;;;5114421;28;20385;-59
2022/07/05 05:43:11;;;;;;;18.77;15.88;;;26.20;99.90;;;;;;5070345;28;20043;-59
2022/07/05 05:45:37;;;;;;;38.83;34.63;;;26.50;99.90;;;;;;5121472;28;20035;-59
2022/07/05 05:48:03;;;;;;;42.58;30.38;;;26.60;99.90;;;;;;5119659;28;20069;-60
2022/07/05 05:50:31;;;;;;;28.90;24.60;;;26.80;99.90;;;;;;5122470;28;20042;-60
2022/07/05 05:52:57;;;;;;;23.60;19.38;;;27.00;99.90;;;;;;5037094;28;20545;-58
2022/07/05 05:55:24;;;;;;;22.70;17.52;;;27.20;99.90;;;;;;5062851;28;20126;-59
2022/07/05 05:57:50;;;;;;;19.50;14.82;;;;;;;;;;5120507;28;20105;-60
2022/07/05 06:00:17;;;;;;;20.10;14.05;;;;;;;;;;5123823;28;20382;-59
2022/07/05 06:02:44;;;;;;;13.90;11.30;;;27.80;99.90;;;;;;5123834;28;20032;-58
2022/07/05 06:05:10;;;;;;;11.98;10.63;;;27.60;99.90;;;;;;5116085;28;20031;-59
2022/07/05 06:07:53;;;;;;;16.67;11.43;;;27.60;99.90;;;;;;5120328;28;20031;-59
2022/07/05 06:10:30;;;;;;;15.68;10.25;;;27.80;99.90;;;;;;5125034;28;20035;-59
2022/07/05 06:12:58;;;;;;;17.08;11.70;;;27.80;99.90;;;;;;5094565;28;20054;-59
2022/07/05 06:15:24;;;;;;;17.45;11.57;;;;;;;;;;5122472;28;20483;-59
2022/07/05 06:17:50;;;;;;;17.20;11.77;;;;;;;;;;5119346;28;20031;-59
2022/07/05 06:20:18;;;;;;;17.75;12.45;;;;;;;;;;5123130;28;20023;-58
2022/07/05 06:22:44;;;;;;;13.82;11.30;;;;;;;;;;5125813;27;20363;-58
2022/07/05 06:25:10;;;;;;;15.93;11.63;;;;;;;;;;5126356;27;20482;-58
2022/07/05 06:27:40;;;;;;;13.65;10.95;;;28.80;99.90;;;;;;5121919;27;20453;-58
2022/07/05 06:30:07;;;;;;;14.55;11.23;;;28.80;99.90;;;;;;5126167;27;20040;-58
2022/07/05 06:32:33;;;;;;;15.90;11.15;;;28.80;99.90;;;;;;5129076;27;20100;-58
2022/07/05 06:34:59;;;;;;;14.45;10.55;;;28.90;99.90;;;;;;5126243;27;20059;-57
2022/07/05 06:37:25;;;;;;;11.93;10.55;;;28.90;99.90;;;;;;5119752;27;20027;-62
2022/07/05 06:39:50;;;;;;;19.98;11.18;;;28.90;99.90;;;;;;5128712;27;20034;-55
2022/07/05 06:42:16;;;;;;;14.40;11.98;;;28.80;99.90;;;;;;5126440;27;20024;-54
2022/07/05 06:44:43;;;;;;;17.35;12.10;;;28.80;99.90;;;;;;5126727;27;20385;-54
2022/07/05 06:47:09;;;;;;;13.80;10.52;;;28.80;99.90;;;;;;5127530;27;20045;-54
2022/07/05 06:49:35;;;;;;;19.85;9.40;;;28.70;99.90;;;;;;5128523;27;20118;-58
2022/07/05 06:52:01;;;;;;;13.77;8.05;;;28.90;99.90;;;;;;5125096;27;20069;-57
2022/07/05 06:54:26;;;;;;;13.80;7.75;;;28.90;99.90;;;;;;5135425;27;20565;-58
2022/07/05 06:56:55;;;;;;;14.77;7.15;;;28.80;99.90;;;;;;5119322;27;21455;-58
2022/07/05 06:59:21;;;;;;;7.70;6.85;;;28.70;99.90;;;;;;5128328;27;20066;-60
2022/07/05 07:01:47;;;;;;;12.27;7.95;;;29.00;99.90;;;;;;5124520;27;20371;-56
2022/07/05 07:04:13;;;;;;;13.27;7.95;;;29.20;99.90;;;;;;5128264;27;20036;-56
2022/07/05 07:06:39;;;;;;;12.30;6.72;;;29.30;99.90;;;;;;5126730;27;20030;-56
2022/07/05 07:09:21;;;;;;;28.92;8.73;;;29.40;99.90;;;;;;5132330;27;20031;-56
2022/07/05 07:11:48;;;;;;;14.95;7.60;;;29.30;99.90;;;;;;5127596;27;20157;-59
2022/07/05 07:14:18;;;;;;;11.00;6.00;;;29.40;99.90;;;;;;5125855;27;20071;-58
2022/07/05 07:16:45;;;;;;;7.03;6.03;;;29.40;99.90;;;;;;5107051;27;20463;-58
2022/07/05 07:19:10;;;;;;;7.95;6.22;;;29.40;99.90;;;;;;5120579;27;20105;-58
2022/07/05 07:21:36;;;;;;;8.60;5.97;;;29.40;99.90;;;;;;5126888;27;20034;-59
2022/07/05 07:24:02;;;;;;;9.38;6.22;;;29.40;99.90;;;;;;5126119;27;20032;-58
2022/07/05 07:26:28;;;;;;;14.38;6.28;;;29.40;99.90;;;;;;5126957;27;20065;-58
2022/07/05 07:28:54;;;;;;;7.07;4.78;;;29.40;99.90;;;;;;5134181;27;20034;-58
2022/07/05 07:31:19;;;;;;;12.38;5.80;;;29.60;99.90;;;;;;5133253;27;20027;-57
2022/07/05 07:33:45;;;;;;;10.68;5.25;;;29.50;99.90;;;;;;5125559;27;20367;-58
2022/07/05 07:36:12;;;;;;;9.98;4.80;;;29.50;99.90;;;;;;5129863;27;20058;-56
2022/07/05 07:38:38;;;;;;;10.95;4.68;;;29.60;99.90;;;;;;5136283;27;20031;-58
2022/07/05 07:41:04;;;;;;;6.25;4.85;;;29.60;99.90;;;;;;5129432;27;20027;-57
2022/07/05 07:43:30;;;;;;;12.40;5.18;;;29.80;99.90;;;;;;5130015;27;20030;-57
2022/07/05 07:45:57;;;;;;;8.48;4.93;;;;;;;;;;5124914;27;20103;-57
2022/07/05 07:48:23;;;;;;;9.88;5.20;;;30.00;99.90;;;;;;5125103;27;20041;-57
2022/07/05 07:50:49;;;;;;;9.75;4.70;;;30.60;99.90;;;;;;5125320;27;20035;-57
2022/07/05 07:53:15;;;;;;;10.25;4.65;;;29.90;99.90;;;;;;5127221;27;20028;-57
2022/07/05 07:55:41;;;;;;;14.73;5.68;;;;;;;;;;5124507;27;20399;-58
2022/07/05 07:58:07;;;;;;;6.22;5.10;;;30.10;99.90;;;;;;5118794;27;20036;-58
2022/07/05 08:00:33;;;;;;;6.43;4.72;;;30.30;99.90;;;;;;5125893;27;20523;-55
2022/07/05 08:02:58;;;;;;;10.48;4.88;;;30.40;99.90;;;;;;5125369;27;20020;-56
2022/07/05 08:05:25;;;;;;;7.15;4.80;;;;;;;;;;5130480;27;20046;-57
2022/07/05 08:07:52;;;;;;;9.20;5.03;;;;;;;;;;5128771;27;20076;-56
2022/07/05 08:10:17;;;;;;;9.02;4.60;;;31.10;99.90;;;;;;5131059;27;20051;-55
2022/07/05 08:12:43;;;;;;;12.75;5.07;;;31.30;99.90;;;;;;5124347;27;20031;-51
2022/07/05 08:15:09;;;;;;;13.50;5.50;;;31.40;99.90;;;;;;5096062;28;20502;-59
2022/07/05 08:17:36;;;;;;;9.75;5.00;;;;;;;;;;5128153;27;20035;-59
2022/07/05 08:22:47;;;;;;;12.40;5.35;;;;;;;;;;5068977;28;20049;-58
2022/07/05 08:25:14;;;;;;;7.55;4.90;;;32.30;99.90;;;;;;5062005;28;20032;-57
2022/07/05 08:27:40;;;;;;;9.75;4.63;;;;;;;;;;5067220;28;20044;-58
2022/07/05 08:30:06;;;;;;;10.50;4.90;;;;;;;;;;5034913;28;20084;-57
2022/07/05 08:32:32;;;;;;;12.50;5.32;;;32.40;99.90;;;;;;5053935;28;20044;-56
2022/07/05 08:34:58;;;;;;;8.48;5.30;;;32.50;99.90;;;;;;5057886;28;20040;-56
2022/07/05 08:37:24;;;;;;;10.00;5.05;;;32.50;99.90;;;;;;5066246;28;20119;-58
2022/07/05 08:39:49;;;;;;;8.73;4.70;;;32.60;99.90;;;;;;5053285;28;20451;-59
2022/07/05 08:42:16;;;;;;;7.80;4.35;;;32.40;99.90;;;;;;5071695;28;20794;-60
2022/07/05 08:44:43;;;;;;;7.78;4.78;;;32.80;99.90;;;;;;5074009;28;20039;-60
2022/07/05 08:47:11;;;;;;;10.35;4.95;;;32.70;99.90;;;;;;5073219;28;20031;-59
2022/07/05 08:49:40;;;;;;;8.32;4.60;;;33.00;99.90;;;;;;5078396;28;20052;-56
2022/07/05 08:52:09;;;;;;;8.98;4.78;;;32.70;99.90;;;;;;5066722;28;20467;-55
2022/07/05 08:54:37;;;;;;;8.07;4.00;;;;;;;;;;5127045;27;20464;-55
2022/07/05 08:57:03;;;;;;;12.15;5.35;;;;;;;;;;5125043;27;20117;-57
2022/07/05 08:59:29;;;;;;;8.38;4.75;;;;;;;;;;5127981;27;20416;-58
2022/07/05 09:01:57;;;;;;;5.35;4.72;;;;;;;;;;5120517;27;20034;-58
2022/07/05 09:04:24;;;;;;;8.68;5.03;;;;;;;;;;5125427;27;20504;-59
2022/07/05 09:06:51;;;;;;;8.48;4.55;;;;;;;;;;5128752;27;20149;-58
2022/07/05 09:09:18;;;;;;;9.00;5.05;;;;;;;;;;5128239;27;20093;-55
2022/07/05 09:11:46;;;;;;;5.47;4.38;;;;;;;;;;5131573;27;20071;-57
2022/07/05 09:14:39;;;;;;;6.70;4.72;;;;;;;;;;5131185;27;20030;-58
2022/07/05 09:17:06;;;;;;;11.25;4.72;;;;;;;;;;5117417;27;20031;-55
2022/07/05 09:19:32;;;;;;;7.75;4.75;;;;;;;;;;5125962;27;20058;-56
2022/07/05 09:22:05;;;;;;;7.15;4.88;;;;;;;;;;5127729;27;20467;-57
2022/07/05 09:24:31;;;;;;;8.70;4.82;;;;;;;;;;5129362;27;20031;-58
2022/07/05 09:27:04;;;;;;;7.00;4.82;;;;;;;;;;5127493;27;20429;-58
2022/07/05 09:29:30;;;;;;;8.30;5.05;;;;;;;;;;5111186;27;20054;-55
2022/07/05 09:31:56;;;;;;;12.40;4.70;;;;;;;;;;5131702;27;20031;-58
2022/07/05 09:34:22;;;;;;;8.90;4.22;;;;;;;;;;5122755;27;20030;-58
2022/07/05 09:36:49;;;;;;;7.05;3.63;;;;;;;;;;5128870;27;20028;-58
2022/07/05 09:39:15;;;;;;;5.72;3.95;;;;;;;;;;5127923;27;20058;-59
2022/07/05 09:41:41;;;;;;;5.95;4.18;;;;;;;;;;5091972;27;20134;-58
2022/07/05 09:44:07;;;;;;;6.25;3.55;;;;;;;;;;5124144;27;20475;-55
2022/07/05 09:46:34;;;;;;;8.20;4.25;;;;;;;;;;5128077;28;20031;-58
2022/07/05 09:49:00;;;;;;;8.95;3.95;;;32.30;99.90;;;;;;5125243;28;20027;-55
2022/07/05 09:51:26;;;;;;;6.47;4.45;;;32.30;99.90;;;;;;5130311;28;20046;-56
2022/07/05 09:53:54;;;;;;;19.90;4.63;;;32.70;99.90;;;;;;5123562;28;20032;-55
2022/07/05 09:56:21;;;;;;;7.65;4.40;;;32.70;99.90;;;;;;5125357;27;20371;-55
2022/07/05 09:58:47;;;;;;;7.82;4.00;;;32.80;99.90;;;;;;5132963;27;20490;-55
2022/07/05 10:01:31;;;;;;;10.93;3.67;;;32.80;99.90;;;;;;5134116;27;20035;-56
2022/07/05 10:04:01;;;;;;;7.35;3.47;;;32.90;99.90;;;;;;5127577;27;20019;-55
2022/07/05 10:06:28;;;;;;;8.35;4.20;;;33.10;99.90;;;;;;5126944;27;20174;-57
2022/07/05 10:08:56;;;;;;;8.82;4.18;;;32.90;99.90;;;;;;5128644;27;20028;-56
2022/07/05 10:11:24;;;;;;;7.32;3.72;;;33.10;99.90;;;;;;5120162;27;20092;-56
2022/07/05 10:13:54;;;;;;;8.18;3.83;;;32.90;99.90;;;;;;5131913;27;20112;-56
2022/07/05 10:16:22;;;;;;;12.93;4.03;;;32.90;99.90;;;;;;5128446;27;20471;-57
2022/07/05 10:18:51;;;;;;;6.40;4.30;;;32.90;99.90;;;;;;5128678;27;20088;-56
2022/07/05 10:21:18;;;;;;;6.63;3.90;;;32.90;99.90;;;;;;5129322;27;20117;-56
2022/07/05 10:23:45;;;;;;;9.30;4.20;;;32.90;99.90;;;;;;5129585;27;20031;-56
2022/07/05 10:26:12;;;;;;;7.80;3.90;;;32.70;99.90;;;;;;5118337;27;20039;-56
2022/07/05 10:28:43;;;;;;;8.30;4.28;;;32.90;99.90;;;;;;5128113;27;20036;-56
2022/07/05 10:31:09;;;;;;;7.85;4.78;;;32.80;99.90;;;;;;5132815;27;20039;-55
2022/07/05 10:33:35;;;;;;;6.55;4.28;;;33.00;99.90;;;;;;5129098;27;20087;-56
2022/07/05 10:36:03;;;;;;;8.30;4.55;;;32.90;99.90;;;;;;5129009;27;20031;-56
2022/07/05 10:38:29;;;;;;;6.72;3.85;;;33.10;99.90;;;;;;5116999;27;20055;-56
2022/07/05 10:41:01;;;;;;;6.18;4.53;;;33.10;99.90;;;;;;5129516;27;20032;-55
2022/07/05 10:43:27;;;;;;;;;;;33.40;99.90;;;;;;5128967;27;20062;-55
2022/07/05 10:45:53;;;;;;;7.13;5.05;;;34.00;99.90;;;;;;5127912;27;19914;-56
2022/07/05 10:48:21;;;;;;;6.88;5.22;;;33.20;99.90;;;;;;5124284;27;20039;-56
2022/07/05 10:50:54;;;;;;;8.25;4.97;;;33.20;99.90;;;;;;5131172;27;20059;-56
2022/07/05 10:53:32;;;;;;;6.40;4.40;;;;;;;;;;5133465;27;20034;-56
2022/07/05 10:56:04;;;;;;;7.60;4.20;;;33.30;99.90;;;;;;5132741;27;20497;-54
2022/07/05 10:58:36;;;;;;;9.05;4.05;;;33.40;99.90;;;;;;5132544;27;20219;-56
2022/07/05 11:01:20;;;;;;;7.15;4.07;;;33.60;99.90;;;;;;5133331;27;20031;-57
2022/07/05 11:03:48;;;;;;;7.30;4.22;;;33.40;99.90;;;;;;5130964;27;20027;-59
2022/07/05 11:06:20;;;;;;;4.68;3.85;;;33.40;99.90;;;;;;5133231;27;20020;-60
2022/07/05 11:08:59;;;;;;;5.78;4.38;;;33.60;99.90;;;;;;5132403;27;20182;-57
2022/07/05 11:11:28;;;;;;;8.75;4.30;;;;;;;;;;5127469;27;20075;-54
2022/07/05 11:13:54;;;;;;;8.57;4.60;;;33.60;99.90;;;;;;5126560;27;20073;-56
2022/07/05 11:16:22;;;;;;;8.07;4.90;;;;;;;;;;5129785;27;20020;-58
2022/07/05 11:18:49;;;;;;;8.23;4.63;;;;;;;;;;5126314;27;20031;-63
2022/07/05 11:21:18;;;;;;;7.07;4.22;;;;;;;;;;5132669;27;20019;-60
2022/07/05 11:23:45;;;;;;;6.28;5.25;;;;;;;;;;5132408;27;20112;-56
2022/07/05 11:26:12;;;;;;;6.95;5.00;;;;;;;;;;5135120;27;20077;-62
2022/07/05 11:28:43;;;;;;;7.85;5.18;;;34.30;99.90;;;;;;5132035;27;20039;-62
2022/07/05 11:45:39;;;;;;;10.32;5.55;;;;;;;;;;5024544;27;1334227;-57
2022/07/05 11:48:14;;;;;;;7.93;5.53;;;34.60;98.40;;;;;;5057410;28;20108;-57
2022/07/05 11:50:40;;;;;;;8.40;4.93;;;34.90;99.00;;;;;;5051049;28;20439;-56
2022/07/05 11:53:06;;;;;;;16.70;7.70;;;35.00;98.50;;;;;;5051718;28;20037;-58
2022/07/05 11:55:31;;;;;;;5.82;4.95;;;35.20;98.50;;;;;;5054891;28;20033;-57
2022/07/05 11:57:58;;;;;;;6.68;5.25;;;34.60;97.70;;;;;;5030540;28;20076;-56
2022/07/05 12:00:35;;;;;;;7.05;3.83;;;34.40;98.30;;;;;;5053625;28;20033;-59
2022/07/05 12:03:13;;;;;;;7.35;5.32;;;34.50;97.70;;;;;;5055427;28;20021;-51
2022/07/05 12:05:40;;;;;;;8.18;6.20;;;34.70;97.60;;;;;;5038438;28;20041;-57
2022/07/05 12:08:06;;;;;;;7.38;5.10;;;35.10;97.70;;;;;;5056918;28;20475;-54
2022/07/05 12:13:16;;;;;;;8.52;4.95;;;35.40;97.80;;;;;;5049413;28;20051;-54
2022/07/05 12:15:42;;;;;;;6.13;5.53;;;35.40;97.40;;;;;;5057346;28;20109;-55
2022/07/05 12:18:09;;;;;;;8.48;5.15;;;35.60;98.00;;;;;;5036379;28;20049;-57
2022/07/05 12:20:36;;;;;;;7.38;5.85;;;35.30;96.40;;;;;;5051878;28;20048;-58
2022/07/05 12:23:03;;;;;;;9.48;6.55;;;35.60;97.20;;;;;;5051933;28;20029;-58
2022/07/05 12:25:30;;;;;;;10.73;5.97;;;35.50;96.10;;;;;;5049898;28;20025;-56
2022/07/05 12:27:59;;;;;;;7.15;5.10;;;35.60;96.70;;;;;;5051523;28;20029;-56
2022/07/05 12:30:27;;;;;;;12.15;5.30;;;35.90;96.30;;;;;;5061820;28;20045;-56
2022/07/05 12:33:00;;;;;;;9.63;5.65;;;35.90;96.60;;;;;;5054630;28;20054;-57
2022/07/05 12:35:34;;;;;;;11.77;6.10;;;35.50;96.00;;;;;;5037209;28;20037;-56
2022/07/05 12:38:04;;;;;;;8.00;5.07;;;36.00;96.60;;;;;;5060049;28;20032;-56
2022/07/05 12:40:30;;;;;;;7.88;5.68;;;35.80;96.10;;;;;;5056475;28;20086;-56
2022/07/05 12:43:04;;;;;;;7.43;4.82;;;36.10;95.90;;;;;;5058665;28;20422;-56
2022/07/05 12:45:31;;;;;;;7.05;5.93;;;35.80;95.60;;;;;;5050452;28;20052;-56
2022/07/05 12:47:59;;;;;;;10.98;5.97;;;35.70;95.50;;;;;;5047245;28;20055;-57
2022/07/05 12:50:31;;;;;;;9.65;5.45;;;35.80;95.40;;;;;;5043769;28;20607;-56
2022/07/05 12:53:00;;;;;;;11.57;5.60;;;35.80;95.70;;;;;;5043125;28;20032;-56
2022/07/05 12:58:20;;;;;;;8.65;5.55;;;36.30;94.90;;;;;;5044710;28;20047;-56
2022/07/05 13:00:46;;;;;;;10.60;5.53;;;36.00;95.20;;;;;;5041569;28;20421;-56
2022/07/05 13:03:12;;;;;;;8.73;4.50;;;36.10;95.00;;;;;;5045781;28;20112;-57
2022/07/05 13:05:38;;;;;;;7.35;5.43;;;36.30;95.80;;;;;;4979039;28;20476;-56
2022/07/05 13:08:04;;;;;;;11.75;5.88;;;36.20;95.40;;;;;;5039960;28;20024;-57
2022/07/05 13:10:31;;;;;;;10.55;6.15;;;36.20;95.20;;;;;;5046488;28;20031;-57
2022/07/05 13:12:58;;;;;;;9.85;5.85;;;36.20;94.80;;;;;;5045229;28;20032;-57
2022/07/05 13:15:24;;;;;;;7.15;5.20;;;36.00;95.00;;;;;;5040843;28;20040;-58
2022/07/05 13:17:50;;;;;;;6.30;4.35;;;;;;;;;;5036162;28;20021;-59